sensor_id;sensor_type;location;lat;lon;timestamp;P1;durP1;ratioP1;P2;durP2;ratioP2
20695;SDS011;10507;52.754;13.040;2023-07-16T00:01:50;3.22;;;2.25;;
20695;SDS011;10507;52.754;13.040;2023-07-16T00:04:18;3.78;;;2.28;;
20695;SDS011;10507;52.754;13.040;2023-07-16T00:06:46;2.70;;;2.05;;
20695;SDS011;10507;52.754;13.040;2023-07-16T00:09:14;3.83;;;2.53;;
20695;SDS011;10507;52.754;13.040;2023-07-16T00:11:42;4.78;;;2.50;;
20695;SDS011;10507;52.754;13.040;2023-07-16T00:14:10;4.05;;;2.50;;
20695;SDS011;10507;52.754;13.040;2023-07-16T00:16:38;4.00;;;2.60;;
20695;SDS011;10507;52.754;13.040;2023-07-16T00:19:09;3.97;;;2.50;;
20695;SDS011;10507;52.754;13.040;2023-07-16T00:21:40;3.25;;;2.53;;
20695;SDS011;10507;52.754;13.040;2023-07-16T00:24:08;4.57;;;2.95;;
20695;SDS011;10507;52.754;13.040;2023-07-16T00:26:36;4.05;;;2.67;;
20695;SDS011;10507;52.754;13.040;2023-07-16T00:29:03;4.53;;;2.47;;
20695;SDS011;10507;52.754;13.040;2023-07-16T00:31:31;4.85;;;2.45;;
20695;SDS011;10507;52.754;13.040;2023-07-16T00:33:59;3.72;;;2.60;;
20695;SDS011;10507;52.754;13.040;2023-07-16T00:36:28;3.33;;;2.30;;
20695;SDS011;10507;52.754;13.040;2023-07-16T00:38:56;5.53;;;2.45;;
20695;SDS011;10507;52.754;13.040;2023-07-16T00:41:24;3.47;;;2.50;;
20695;SDS011;10507;52.754;13.040;2023-07-16T00:43:52;3.47;;;2.25;;
20695;SDS011;10507;52.754;13.040;2023-07-16T00:46:21;6.00;;;2.55;;
20695;SDS011;10507;52.754;13.040;2023-07-16T00:48:49;6.10;;;3.15;;
20695;SDS011;10507;52.754;13.040;2023-07-16T00:51:17;6.47;;;2.70;;
20695;SDS011;10507;52.754;13.040;2023-07-16T00:53:47;7.38;;;3.25;;
20695;SDS011;10507;52.754;13.040;2023-07-16T00:56:16;4.57;;;3.13;;
20695;SDS011;10507;52.754;13.040;2023-07-16T00:58:44;5.53;;;3.53;;
20695;SDS011;10507;52.754;13.040;2023-07-16T01:01:12;4.90;;;2.88;;
20695;SDS011;10507;52.754;13.040;2023-07-16T01:03:40;6.78;;;2.70;;
20695;SDS011;10507;52.754;13.040;2023-07-16T01:06:10;5.15;;;2.85;;
20695;SDS011;10507;52.754;13.040;2023-07-16T01:08:42;5.45;;;3.15;;
20695;SDS011;10507;52.754;13.040;2023-07-16T01:11:15;4.45;;;2.70;;
20695;SDS011;10507;52.754;13.040;2023-07-16T01:13:43;3.97;;;2.78;;
20695;SDS011;10507;52.754;13.040;2023-07-16T01:16:18;4.45;;;2.60;;
20695;SDS011;10507;52.754;13.040;2023-07-16T01:18:47;3.60;;;2.70;;
20695;SDS011;10507;52.754;13.040;2023-07-16T01:21:15;6.20;;;3.28;;
20695;SDS011;10507;52.754;13.040;2023-07-16T01:23:54;5.93;;;2.45;;
20695;SDS011;10507;52.754;13.040;2023-07-16T01:26:32;4.32;;;2.95;;
20695;SDS011;10507;52.754;13.040;2023-07-16T01:32:00;3.75;;;2.78;;
20695;SDS011;10507;52.754;13.040;2023-07-16T01:34:32;4.10;;;2.85;;
20695;SDS011;10507;52.754;13.040;2023-07-16T01:37:02;3.10;;;2.67;;
20695;SDS011;10507;52.754;13.040;2023-07-16T01:39:31;4.32;;;3.35;;
20695;SDS011;10507;52.754;13.040;2023-07-16T01:42:00;3.97;;;2.97;;
20695;SDS011;10507;52.754;13.040;2023-07-16T01:44:29;4.13;;;2.72;;
20695;SDS011;10507;52.754;13.040;2023-07-16T01:47:05;4.18;;;3.08;;
20695;SDS011;10507;52.754;13.040;2023-07-16T01:49:38;5.22;;;3.08;;
20695;SDS011;10507;52.754;13.040;2023-07-16T01:52:07;5.20;;;3.40;;
20695;SDS011;10507;52.754;13.040;2023-07-16T01:54:36;5.38;;;3.30;;
20695;SDS011;10507;52.754;13.040;2023-07-16T01:57:04;5.78;;;3.53;;
20695;SDS011;10507;52.754;13.040;2023-07-16T01:59:32;4.35;;;3.00;;
20695;SDS011;10507;52.754;13.040;2023-07-16T02:02:00;4.53;;;2.72;;
20695;SDS011;10507;52.754;13.040;2023-07-16T02:04:29;4.57;;;2.75;;
20695;SDS011;10507;52.754;13.040;2023-07-16T02:06:57;4.53;;;3.08;;
20695;SDS011;10507;52.754;13.040;2023-07-16T02:09:25;3.85;;;2.67;;
20695;SDS011;10507;52.754;13.040;2023-07-16T02:11:53;5.00;;;3.10;;
20695;SDS011;10507;52.754;13.040;2023-07-16T02:14:21;4.68;;;3.38;;
20695;SDS011;10507;52.754;13.040;2023-07-16T02:16:49;6.25;;;3.47;;
20695;SDS011;10507;52.754;13.040;2023-07-16T02:19:16;5.90;;;3.75;;
20695;SDS011;10507;52.754;13.040;2023-07-16T02:21:45;4.22;;;3.13;;
20695;SDS011;10507;52.754;13.040;2023-07-16T02:24:13;4.30;;;3.22;;
20695;SDS011;10507;52.754;13.040;2023-07-16T02:26:41;4.97;;;3.38;;
20695;SDS011;10507;52.754;13.040;2023-07-16T02:29:09;6.82;;;3.20;;
20695;SDS011;10507;52.754;13.040;2023-07-16T02:31:37;6.07;;;3.97;;
20695;SDS011;10507;52.754;13.040;2023-07-16T02:34:05;7.70;;;3.97;;
20695;SDS011;10507;52.754;13.040;2023-07-16T02:36:32;5.20;;;3.65;;
20695;SDS011;10507;52.754;13.040;2023-07-16T02:39:02;8.95;;;3.90;;
20695;SDS011;10507;52.754;13.040;2023-07-16T02:41:30;6.90;;;4.50;;
20695;SDS011;10507;52.754;13.040;2023-07-16T02:44:01;5.40;;;3.90;;
20695;SDS011;10507;52.754;13.040;2023-07-16T02:46:31;4.07;;;3.25;;
20695;SDS011;10507;52.754;13.040;2023-07-16T02:48:59;7.15;;;4.05;;
20695;SDS011;10507;52.754;13.040;2023-07-16T02:51:27;4.18;;;3.38;;
20695;SDS011;10507;52.754;13.040;2023-07-16T02:53:55;6.38;;;4.25;;
20695;SDS011;10507;52.754;13.040;2023-07-16T02:56:24;5.60;;;3.88;;
20695;SDS011;10507;52.754;13.040;2023-07-16T02:58:54;5.88;;;3.97;;
20695;SDS011;10507;52.754;13.040;2023-07-16T03:01:22;4.90;;;3.40;;
20695;SDS011;10507;52.754;13.040;2023-07-16T03:03:49;5.88;;;3.60;;
20695;SDS011;10507;52.754;13.040;2023-07-16T03:06:17;6.13;;;4.00;;
20695;SDS011;10507;52.754;13.040;2023-07-16T03:08:48;5.85;;;3.90;;
20695;SDS011;10507;52.754;13.040;2023-07-16T03:11:16;6.45;;;4.30;;
20695;SDS011;10507;52.754;13.040;2023-07-16T03:13:45;4.68;;;3.88;;
20695;SDS011;10507;52.754;13.040;2023-07-16T03:16:13;6.18;;;4.00;;
20695;SDS011;10507;52.754;13.040;2023-07-16T03:18:41;5.80;;;4.38;;
20695;SDS011;10507;52.754;13.040;2023-07-16T03:21:09;6.90;;;4.40;;
20695;SDS011;10507;52.754;13.040;2023-07-16T03:23:37;4.85;;;4.15;;
20695;SDS011;10507;52.754;13.040;2023-07-16T03:26:05;4.90;;;4.25;;
20695;SDS011;10507;52.754;13.040;2023-07-16T03:28:33;6.88;;;4.47;;
20695;SDS011;10507;52.754;13.040;2023-07-16T03:31:02;8.18;;;4.60;;
20695;SDS011;10507;52.754;13.040;2023-07-16T03:33:30;6.78;;;4.43;;
20695;SDS011;10507;52.754;13.040;2023-07-16T03:35:58;5.35;;;4.32;;
20695;SDS011;10507;52.754;13.040;2023-07-16T03:38:26;6.65;;;4.13;;
20695;SDS011;10507;52.754;13.040;2023-07-16T03:40:54;6.68;;;4.03;;
20695;SDS011;10507;52.754;13.040;2023-07-16T03:43:22;8.13;;;5.20;;
20695;SDS011;10507;52.754;13.040;2023-07-16T03:45:49;7.90;;;4.68;;
20695;SDS011;10507;52.754;13.040;2023-07-16T03:48:18;8.85;;;4.88;;
20695;SDS011;10507;52.754;13.040;2023-07-16T03:50:46;7.65;;;4.93;;
20695;SDS011;10507;52.754;13.040;2023-07-16T03:53:15;7.60;;;4.78;;
20695;SDS011;10507;52.754;13.040;2023-07-16T03:55:43;6.25;;;4.57;;
20695;SDS011;10507;52.754;13.040;2023-07-16T03:58:11;7.07;;;3.97;;
20695;SDS011;10507;52.754;13.040;2023-07-16T04:00:40;7.13;;;4.63;;
20695;SDS011;10507;52.754;13.040;2023-07-16T04:03:10;7.95;;;4.25;;
20695;SDS011;10507;52.754;13.040;2023-07-16T04:05:39;5.80;;;4.00;;
20695;SDS011;10507;52.754;13.040;2023-07-16T04:08:07;9.55;;;4.55;;
20695;SDS011;10507;52.754;13.040;2023-07-16T04:10:35;7.70;;;4.70;;
20695;SDS011;10507;52.754;13.040;2023-07-16T04:13:03;7.05;;;4.05;;
20695;SDS011;10507;52.754;13.040;2023-07-16T04:15:31;5.47;;;3.90;;
20695;SDS011;10507;52.754;13.040;2023-07-16T04:17:59;6.93;;;4.32;;
20695;SDS011;10507;52.754;13.040;2023-07-16T04:20:27;6.47;;;3.20;;
20695;SDS011;10507;52.754;13.040;2023-07-16T04:22:56;6.13;;;4.43;;
20695;SDS011;10507;52.754;13.040;2023-07-16T04:25:24;6.50;;;4.35;;
20695;SDS011;10507;52.754;13.040;2023-07-16T04:27:53;7.45;;;4.88;;
20695;SDS011;10507;52.754;13.040;2023-07-16T04:30:21;7.57;;;4.60;;
20695;SDS011;10507;52.754;13.040;2023-07-16T04:32:49;5.53;;;3.85;;
20695;SDS011;10507;52.754;13.040;2023-07-16T04:35:17;5.07;;;4.05;;
20695;SDS011;10507;52.754;13.040;2023-07-16T04:37:45;4.72;;;4.00;;
20695;SDS011;10507;52.754;13.040;2023-07-16T04:40:14;5.13;;;4.03;;
20695;SDS011;10507;52.754;13.040;2023-07-16T04:42:42;5.53;;;4.07;;
20695;SDS011;10507;52.754;13.040;2023-07-16T04:45:10;7.20;;;4.72;;
20695;SDS011;10507;52.754;13.040;2023-07-16T04:47:39;6.57;;;4.07;;
20695;SDS011;10507;52.754;13.040;2023-07-16T04:50:07;5.97;;;4.47;;
20695;SDS011;10507;52.754;13.040;2023-07-16T04:52:35;6.57;;;4.53;;
20695;SDS011;10507;52.754;13.040;2023-07-16T04:55:03;6.22;;;4.13;;
20695;SDS011;10507;52.754;13.040;2023-07-16T04:57:33;5.45;;;3.85;;
20695;SDS011;10507;52.754;13.040;2023-07-16T05:00:02;6.78;;;4.40;;
20695;SDS011;10507;52.754;13.040;2023-07-16T05:02:32;5.35;;;3.58;;
20695;SDS011;10507;52.754;13.040;2023-07-16T05:05:00;8.82;;;4.03;;
20695;SDS011;10507;52.754;13.040;2023-07-16T05:07:28;4.63;;;3.60;;
20695;SDS011;10507;52.754;13.040;2023-07-16T05:09:56;6.22;;;3.50;;
20695;SDS011;10507;52.754;13.040;2023-07-16T05:12:23;5.30;;;3.65;;
20695;SDS011;10507;52.754;13.040;2023-07-16T05:14:53;6.13;;;3.58;;
20695;SDS011;10507;52.754;13.040;2023-07-16T05:17:20;4.03;;;3.08;;
20695;SDS011;10507;52.754;13.040;2023-07-16T05:19:49;5.70;;;3.00;;
20695;SDS011;10507;52.754;13.040;2023-07-16T05:22:17;4.82;;;3.25;;
20695;SDS011;10507;52.754;13.040;2023-07-16T05:24:45;6.05;;;3.15;;
20695;SDS011;10507;52.754;13.040;2023-07-16T05:27:13;4.75;;;3.20;;
20695;SDS011;10507;52.754;13.040;2023-07-16T05:29:42;4.88;;;2.88;;
20695;SDS011;10507;52.754;13.040;2023-07-16T05:32:11;4.28;;;3.00;;
20695;SDS011;10507;52.754;13.040;2023-07-16T05:34:39;4.45;;;2.80;;
20695;SDS011;10507;52.754;13.040;2023-07-16T05:37:07;6.63;;;3.10;;
20695;SDS011;10507;52.754;13.040;2023-07-16T05:39:35;5.35;;;2.90;;
20695;SDS011;10507;52.754;13.040;2023-07-16T05:42:03;5.65;;;3.10;;
20695;SDS011;10507;52.754;13.040;2023-07-16T05:44:31;5.35;;;3.67;;
20695;SDS011;10507;52.754;13.040;2023-07-16T05:46:59;6.53;;;3.10;;
20695;SDS011;10507;52.754;13.040;2023-07-16T05:49:28;6.32;;;3.60;;
20695;SDS011;10507;52.754;13.040;2023-07-16T05:51:56;7.07;;;3.70;;
20695;SDS011;10507;52.754;13.040;2023-07-16T05:54:24;4.53;;;3.15;;
20695;SDS011;10507;52.754;13.040;2023-07-16T05:56:52;4.95;;;3.10;;
20695;SDS011;10507;52.754;13.040;2023-07-16T05:59:20;4.55;;;3.30;;
20695;SDS011;10507;52.754;13.040;2023-07-16T06:01:48;4.38;;;2.67;;
20695;SDS011;10507;52.754;13.040;2023-07-16T06:04:16;3.40;;;2.28;;
20695;SDS011;10507;52.754;13.040;2023-07-16T06:06:45;4.60;;;2.83;;
20695;SDS011;10507;52.754;13.040;2023-07-16T06:09:17;3.90;;;2.60;;
20695;SDS011;10507;52.754;13.040;2023-07-16T06:11:46;6.25;;;2.53;;
20695;SDS011;10507;52.754;13.040;2023-07-16T06:14:14;3.22;;;2.05;;
20695;SDS011;10507;52.754;13.040;2023-07-16T06:16:42;5.25;;;2.25;;
20695;SDS011;10507;52.754;13.040;2023-07-16T06:19:10;3.60;;;2.65;;
20695;SDS011;10507;52.754;13.040;2023-07-16T06:21:37;4.90;;;2.40;;
20695;SDS011;10507;52.754;13.040;2023-07-16T06:24:07;4.88;;;2.28;;
20695;SDS011;10507;52.754;13.040;2023-07-16T06:26:35;5.35;;;2.55;;
20695;SDS011;10507;52.754;13.040;2023-07-16T06:29:03;5.20;;;2.67;;
20695;SDS011;10507;52.754;13.040;2023-07-16T06:31:32;3.95;;;2.38;;
20695;SDS011;10507;52.754;13.040;2023-07-16T06:34:01;3.78;;;2.95;;
20695;SDS011;10507;52.754;13.040;2023-07-16T06:36:29;4.32;;;2.88;;
20695;SDS011;10507;52.754;13.040;2023-07-16T06:38:57;4.05;;;2.78;;
20695;SDS011;10507;52.754;13.040;2023-07-16T06:41:27;4.80;;;2.80;;
20695;SDS011;10507;52.754;13.040;2023-07-16T06:43:56;5.30;;;2.67;;
20695;SDS011;10507;52.754;13.040;2023-07-16T06:46:24;7.53;;;3.17;;
20695;SDS011;10507;52.754;13.040;2023-07-16T06:48:52;3.55;;;2.80;;
20695;SDS011;10507;52.754;13.040;2023-07-16T06:51:20;6.00;;;3.05;;
20695;SDS011;10507;52.754;13.040;2023-07-16T06:53:48;4.00;;;2.97;;
20695;SDS011;10507;52.754;13.040;2023-07-16T06:56:16;5.65;;;2.70;;
20695;SDS011;10507;52.754;13.040;2023-07-16T06:58:45;4.38;;;2.92;;
20695;SDS011;10507;52.754;13.040;2023-07-16T07:01:13;4.88;;;2.60;;
20695;SDS011;10507;52.754;13.040;2023-07-16T07:03:40;3.80;;;2.50;;
20695;SDS011;10507;52.754;13.040;2023-07-16T07:06:08;3.63;;;2.25;;
20695;SDS011;10507;52.754;13.040;2023-07-16T07:08:37;6.38;;;4.15;;
20695;SDS011;10507;52.754;13.040;2023-07-16T07:11:05;4.53;;;3.22;;
20695;SDS011;10507;52.754;13.040;2023-07-16T07:13:32;4.05;;;2.80;;
20695;SDS011;10507;52.754;13.040;2023-07-16T07:16:02;4.78;;;2.92;;
20695;SDS011;10507;52.754;13.040;2023-07-16T07:18:30;4.07;;;2.70;;
20695;SDS011;10507;52.754;13.040;2023-07-16T07:20:58;4.47;;;2.40;;
20695;SDS011;10507;52.754;13.040;2023-07-16T07:23:26;3.00;;;1.98;;
20695;SDS011;10507;52.754;13.040;2023-07-16T07:25:54;3.50;;;2.40;;
20695;SDS011;10507;52.754;13.040;2023-07-16T07:28:22;4.93;;;2.60;;
20695;SDS011;10507;52.754;13.040;2023-07-16T07:30:49;3.65;;;2.40;;
20695;SDS011;10507;52.754;13.040;2023-07-16T07:33:21;2.95;;;1.92;;
20695;SDS011;10507;52.754;13.040;2023-07-16T07:35:49;3.25;;;2.10;;
20695;SDS011;10507;52.754;13.040;2023-07-16T07:38:20;3.35;;;2.03;;
20695;SDS011;10507;52.754;13.040;2023-07-16T07:40:48;2.67;;;2.08;;
20695;SDS011;10507;52.754;13.040;2023-07-16T07:43:16;5.22;;;2.40;;
20695;SDS011;10507;52.754;13.040;2023-07-16T07:45:44;3.25;;;2.35;;
20695;SDS011;10507;52.754;13.040;2023-07-16T07:48:12;3.35;;;2.00;;
20695;SDS011;10507;52.754;13.040;2023-07-16T07:50:41;4.10;;;2.13;;
20695;SDS011;10507;52.754;13.040;2023-07-16T07:53:09;3.55;;;1.98;;
20695;SDS011;10507;52.754;13.040;2023-07-16T07:55:37;3.67;;;1.65;;
20695;SDS011;10507;52.754;13.040;2023-07-16T07:58:05;2.22;;;1.60;;
20695;SDS011;10507;52.754;13.040;2023-07-16T08:00:33;2.38;;;1.33;;
20695;SDS011;10507;52.754;13.040;2023-07-16T08:03:01;2.65;;;1.65;;
20695;SDS011;10507;52.754;13.040;2023-07-16T08:05:29;3.80;;;1.45;;
20695;SDS011;10507;52.754;13.040;2023-07-16T08:07:59;6.40;;;1.83;;
20695;SDS011;10507;52.754;13.040;2023-07-16T08:10:27;5.28;;;1.80;;
20695;SDS011;10507;52.754;13.040;2023-07-16T08:12:55;3.15;;;1.60;;
20695;SDS011;10507;52.754;13.040;2023-07-16T08:15:22;5.00;;;1.98;;
20695;SDS011;10507;52.754;13.040;2023-07-16T08:17:50;3.92;;;1.58;;
20695;SDS011;10507;52.754;13.040;2023-07-16T08:20:21;3.58;;;1.50;;
20695;SDS011;10507;52.754;13.040;2023-07-16T08:22:49;3.67;;;1.83;;
20695;SDS011;10507;52.754;13.040;2023-07-16T08:25:18;4.28;;;1.77;;
20695;SDS011;10507;52.754;13.040;2023-07-16T08:27:46;4.55;;;1.95;;
20695;SDS011;10507;52.754;13.040;2023-07-16T08:30:14;4.57;;;1.73;;
20695;SDS011;10507;52.754;13.040;2023-07-16T08:32:43;2.65;;;1.60;;
20695;SDS011;10507;52.754;13.040;2023-07-16T08:35:11;4.28;;;1.95;;
20695;SDS011;10507;52.754;13.040;2023-07-16T08:37:42;3.60;;;1.90;;
20695;SDS011;10507;52.754;13.040;2023-07-16T08:40:11;3.13;;;1.30;;
20695;SDS011;10507;52.754;13.040;2023-07-16T08:42:41;2.08;;;1.30;;
20695;SDS011;10507;52.754;13.040;2023-07-16T08:45:12;2.20;;;1.38;;
20695;SDS011;10507;52.754;13.040;2023-07-16T08:47:42;3.28;;;1.70;;
20695;SDS011;10507;52.754;13.040;2023-07-16T08:50:10;3.38;;;1.75;;
20695;SDS011;10507;52.754;13.040;2023-07-16T08:52:40;2.75;;;1.10;;
20695;SDS011;10507;52.754;13.040;2023-07-16T08:55:08;2.33;;;1.10;;
20695;SDS011;10507;52.754;13.040;2023-07-16T08:57:36;3.58;;;1.30;;
20695;SDS011;10507;52.754;13.040;2023-07-16T09:00:07;2.60;;;1.02;;
20695;SDS011;10507;52.754;13.040;2023-07-16T09:02:36;3.00;;;1.02;;
20695;SDS011;10507;52.754;13.040;2023-07-16T09:05:04;3.17;;;1.20;;
20695;SDS011;10507;52.754;13.040;2023-07-16T09:07:33;1.95;;;1.00;;
20695;SDS011;10507;52.754;13.040;2023-07-16T09:10:04;2.15;;;1.30;;
20695;SDS011;10507;52.754;13.040;2023-07-16T09:12:32;4.70;;;1.10;;
20695;SDS011;10507;52.754;13.040;2023-07-16T09:15:00;2.53;;;0.90;;
20695;SDS011;10507;52.754;13.040;2023-07-16T09:17:30;2.17;;;0.90;;
20695;SDS011;10507;52.754;13.040;2023-07-16T09:20:01;2.22;;;1.02;;
20695;SDS011;10507;52.754;13.040;2023-07-16T09:22:30;2.75;;;1.20;;
20695;SDS011;10507;52.754;13.040;2023-07-16T09:24:59;1.63;;;0.80;;
20695;SDS011;10507;52.754;13.040;2023-07-16T09:27:27;3.03;;;0.90;;
20695;SDS011;10507;52.754;13.040;2023-07-16T09:29:55;2.55;;;1.00;;
20695;SDS011;10507;52.754;13.040;2023-07-16T09:32:33;4.97;;;1.50;;
20695;SDS011;10507;52.754;13.040;2023-07-16T09:35:05;2.78;;;1.42;;
20695;SDS011;10507;52.754;13.040;2023-07-16T09:37:36;2.85;;;1.20;;
20695;SDS011;10507;52.754;13.040;2023-07-16T09:40:06;2.58;;;0.98;;
20695;SDS011;10507;52.754;13.040;2023-07-16T09:42:37;1.50;;;1.00;;
20695;SDS011;10507;52.754;13.040;2023-07-16T09:45:06;3.03;;;1.30;;
20695;SDS011;10507;52.754;13.040;2023-07-16T09:47:36;2.53;;;1.10;;
20695;SDS011;10507;52.754;13.040;2023-07-16T09:50:04;1.73;;;0.80;;
20695;SDS011;10507;52.754;13.040;2023-07-16T09:52:33;5.07;;;1.42;;
20695;SDS011;10507;52.754;13.040;2023-07-16T09:55:02;2.95;;;1.27;;
20695;SDS011;10507;52.754;13.040;2023-07-16T09:57:32;3.25;;;0.90;;
20695;SDS011;10507;52.754;13.040;2023-07-16T10:00:03;4.15;;;1.25;;
20695;SDS011;10507;52.754;13.040;2023-07-16T10:02:39;4.50;;;1.33;;
20695;SDS011;10507;52.754;13.040;2023-07-16T10:05:11;2.75;;;1.00;;
20695;SDS011;10507;52.754;13.040;2023-07-16T10:07:40;3.35;;;1.10;;
20695;SDS011;10507;52.754;13.040;2023-07-16T10:10:08;1.58;;;0.98;;
20695;SDS011;10507;52.754;13.040;2023-07-16T10:12:38;2.92;;;1.17;;
20695;SDS011;10507;52.754;13.040;2023-07-16T10:15:11;2.78;;;1.20;;
20695;SDS011;10507;52.754;13.040;2023-07-16T10:17:49;4.05;;;1.30;;
20695;SDS011;10507;52.754;13.040;2023-07-16T10:20:18;3.13;;;1.20;;
20695;SDS011;10507;52.754;13.040;2023-07-16T10:22:56;2.65;;;1.15;;
20695;SDS011;10507;52.754;13.040;2023-07-16T10:25:25;2.40;;;1.30;;
20695;SDS011;10507;52.754;13.040;2023-07-16T10:27:56;3.10;;;1.17;;
20695;SDS011;10507;52.754;13.040;2023-07-16T10:30:23;3.38;;;1.30;;
20695;SDS011;10507;52.754;13.040;2023-07-16T10:32:52;3.45;;;1.10;;
20695;SDS011;10507;52.754;13.040;2023-07-16T10:35:20;3.25;;;1.48;;
20695;SDS011;10507;52.754;13.040;2023-07-16T10:37:48;2.58;;;1.10;;
20695;SDS011;10507;52.754;13.040;2023-07-16T10:40:16;2.58;;;1.10;;
20695;SDS011;10507;52.754;13.040;2023-07-16T10:42:44;2.50;;;1.10;;
20695;SDS011;10507;52.754;13.040;2023-07-16T10:45:13;2.83;;;1.33;;
20695;SDS011;10507;52.754;13.040;2023-07-16T10:47:50;1.50;;;0.90;;
20695;SDS011;10507;52.754;13.040;2023-07-16T10:50:21;3.65;;;1.30;;
20695;SDS011;10507;52.754;13.040;2023-07-16T10:52:52;1.65;;;1.05;;
20695;SDS011;10507;52.754;13.040;2023-07-16T10:55:21;3.92;;;1.40;;
20695;SDS011;10507;52.754;13.040;2023-07-16T10:57:49;7.72;;;2.60;;
20695;SDS011;10507;52.754;13.040;2023-07-16T11:00:19;5.93;;;1.65;;
20695;SDS011;10507;52.754;13.040;2023-07-16T11:02:49;3.22;;;1.42;;
20695;SDS011;10507;52.754;13.040;2023-07-16T11:05:17;2.97;;;1.30;;
20695;SDS011;10507;52.754;13.040;2023-07-16T11:07:48;3.78;;;1.30;;
20695;SDS011;10507;52.754;13.040;2023-07-16T11:10:21;2.83;;;1.52;;
20695;SDS011;10507;52.754;13.040;2023-07-16T11:12:50;4.07;;;1.30;;
20695;SDS011;10507;52.754;13.040;2023-07-16T11:15:29;3.30;;;1.50;;
20695;SDS011;10507;52.754;13.040;2023-07-16T11:17:57;2.85;;;1.55;;
20695;SDS011;10507;52.754;13.040;2023-07-16T11:20:25;2.75;;;1.30;;
20695;SDS011;10507;52.754;13.040;2023-07-16T11:22:57;3.30;;;1.30;;
20695;SDS011;10507;52.754;13.040;2023-07-16T11:25:25;5.85;;;1.48;;
20695;SDS011;10507;52.754;13.040;2023-07-16T11:27:54;5.50;;;1.75;;
20695;SDS011;10507;52.754;13.040;2023-07-16T11:30:23;2.67;;;1.50;;
20695;SDS011;10507;52.754;13.040;2023-07-16T11:32:51;4.88;;;1.70;;
20695;SDS011;10507;52.754;13.040;2023-07-16T11:35:20;2.78;;;1.40;;
20695;SDS011;10507;52.754;13.040;2023-07-16T11:37:48;3.97;;;1.75;;
20695;SDS011;10507;52.754;13.040;2023-07-16T11:40:18;4.78;;;1.75;;
20695;SDS011;10507;52.754;13.040;2023-07-16T11:42:48;3.58;;;1.45;;
20695;SDS011;10507;52.754;13.040;2023-07-16T11:45:17;3.45;;;1.45;;
20695;SDS011;10507;52.754;13.040;2023-07-16T11:47:46;5.40;;;1.38;;
20695;SDS011;10507;52.754;13.040;2023-07-16T11:50:14;3.28;;;1.40;;
20695;SDS011;10507;52.754;13.040;2023-07-16T11:52:43;4.20;;;1.40;;
20695;SDS011;10507;52.754;13.040;2023-07-16T11:55:21;3.05;;;1.50;;
20695;SDS011;10507;52.754;13.040;2023-07-16T11:57:48;1.58;;;1.10;;
20695;SDS011;10507;52.754;13.040;2023-07-16T12:00:16;2.85;;;1.85;;
20695;SDS011;10507;52.754;13.040;2023-07-16T12:02:45;3.20;;;1.65;;
20695;SDS011;10507;52.754;13.040;2023-07-16T12:05:18;2.13;;;1.20;;
20695;SDS011;10507;52.754;13.040;2023-07-16T12:07:56;2.83;;;1.48;;
20695;SDS011;10507;52.754;13.040;2023-07-16T12:10:25;3.70;;;1.52;;
20695;SDS011;10507;52.754;13.040;2023-07-16T12:12:53;6.43;;;1.73;;
20695;SDS011;10507;52.754;13.040;2023-07-16T12:15:20;2.88;;;1.23;;
20695;SDS011;10507;52.754;13.040;2023-07-16T12:17:48;2.60;;;1.40;;
20695;SDS011;10507;52.754;13.040;2023-07-16T12:20:16;2.60;;;1.38;;
20695;SDS011;10507;52.754;13.040;2023-07-16T12:22:44;3.97;;;1.48;;
20695;SDS011;10507;52.754;13.040;2023-07-16T12:25:14;3.50;;;1.00;;
20695;SDS011;10507;52.754;13.040;2023-07-16T12:27:45;3.03;;;1.30;;
20695;SDS011;10507;52.754;13.040;2023-07-16T12:30:12;2.75;;;1.10;;
20695;SDS011;10507;52.754;13.040;2023-07-16T12:32:40;3.17;;;1.35;;
20695;SDS011;10507;52.754;13.040;2023-07-16T12:35:08;3.75;;;1.38;;
20695;SDS011;10507;52.754;13.040;2023-07-16T12:37:36;2.67;;;1.25;;
20695;SDS011;10507;52.754;13.040;2023-07-16T12:40:06;3.35;;;1.17;;
20695;SDS011;10507;52.754;13.040;2023-07-16T12:42:35;3.13;;;1.27;;
20695;SDS011;10507;52.754;13.040;2023-07-16T12:45:04;4.35;;;1.58;;
20695;SDS011;10507;52.754;13.040;2023-07-16T12:47:33;2.50;;;1.15;;
20695;SDS011;10507;52.754;13.040;2023-07-16T12:50:01;3.88;;;1.35;;
20695;SDS011;10507;52.754;13.040;2023-07-16T12:52:30;2.97;;;1.35;;
20695;SDS011;10507;52.754;13.040;2023-07-16T12:54:58;4.45;;;1.35;;
20695;SDS011;10507;52.754;13.040;2023-07-16T12:57:25;4.32;;;1.40;;
20695;SDS011;10507;52.754;13.040;2023-07-16T12:59:53;3.33;;;1.10;;
20695;SDS011;10507;52.754;13.040;2023-07-16T13:02:23;6.10;;;1.35;;
20695;SDS011;10507;52.754;13.040;2023-07-16T13:04:50;2.47;;;0.90;;
20695;SDS011;10507;52.754;13.040;2023-07-16T13:07:18;3.17;;;1.27;;
20695;SDS011;10507;52.754;13.040;2023-07-16T13:09:46;3.83;;;1.63;;
20695;SDS011;10507;52.754;13.040;2023-07-16T13:12:21;3.63;;;1.40;;
20695;SDS011;10507;52.754;13.040;2023-07-16T13:14:48;3.20;;;1.20;;
20695;SDS011;10507;52.754;13.040;2023-07-16T13:17:16;5.28;;;1.65;;
20695;SDS011;10507;52.754;13.040;2023-07-16T13:19:47;3.45;;;1.05;;
20695;SDS011;10507;52.754;13.040;2023-07-16T13:22:15;4.82;;;1.50;;
20695;SDS011;10507;52.754;13.040;2023-07-16T13:24:43;2.10;;;1.20;;
20695;SDS011;10507;52.754;13.040;2023-07-16T13:27:19;3.35;;;1.23;;
20695;SDS011;10507;52.754;13.040;2023-07-16T13:29:47;5.05;;;1.60;;
20695;SDS011;10507;52.754;13.040;2023-07-16T13:32:15;2.65;;;1.20;;
20695;SDS011;10507;52.754;13.040;2023-07-16T13:34:42;3.75;;;1.23;;
20695;SDS011;10507;52.754;13.040;2023-07-16T13:37:12;2.35;;;1.10;;
20695;SDS011;10507;52.754;13.040;2023-07-16T13:39:40;2.88;;;1.27;;
20695;SDS011;10507;52.754;13.040;2023-07-16T13:42:08;1.73;;;1.15;;
20695;SDS011;10507;52.754;13.040;2023-07-16T13:44:48;1.90;;;1.20;;
20695;SDS011;10507;52.754;13.040;2023-07-16T13:47:16;2.83;;;1.40;;
20695;SDS011;10507;52.754;13.040;2023-07-16T13:49:44;3.45;;;0.98;;
20695;SDS011;10507;52.754;13.040;2023-07-16T13:52:13;3.63;;;1.35;;
20695;SDS011;10507;52.754;13.040;2023-07-16T13:54:41;3.60;;;1.50;;
20695;SDS011;10507;52.754;13.040;2023-07-16T13:57:09;3.10;;;1.40;;
20695;SDS011;10507;52.754;13.040;2023-07-16T13:59:37;5.70;;;1.52;;
20695;SDS011;10507;52.754;13.040;2023-07-16T14:02:04;2.95;;;1.27;;
20695;SDS011;10507;52.754;13.040;2023-07-16T14:04:32;2.85;;;1.00;;
20695;SDS011;10507;52.754;13.040;2023-07-16T14:07:00;4.43;;;1.52;;
20695;SDS011;10507;52.754;13.040;2023-07-16T14:09:30;3.50;;;1.25;;
20695;SDS011;10507;52.754;13.040;2023-07-16T14:11:58;3.75;;;1.30;;
20695;SDS011;10507;52.754;13.040;2023-07-16T14:14:26;5.05;;;1.33;;
20695;SDS011;10507;52.754;13.040;2023-07-16T14:16:54;4.70;;;1.10;;
20695;SDS011;10507;52.754;13.040;2023-07-16T14:19:23;2.70;;;1.20;;
20695;SDS011;10507;52.754;13.040;2023-07-16T14:21:51;2.85;;;1.30;;
20695;SDS011;10507;52.754;13.040;2023-07-16T14:24:19;2.08;;;1.05;;
20695;SDS011;10507;52.754;13.040;2023-07-16T14:26:48;2.53;;;1.13;;
20695;SDS011;10507;52.754;13.040;2023-07-16T14:29:16;4.07;;;1.30;;
20695;SDS011;10507;52.754;13.040;2023-07-16T14:31:44;4.60;;;1.20;;
20695;SDS011;10507;52.754;13.040;2023-07-16T14:34:13;1.73;;;1.05;;
20695;SDS011;10507;52.754;13.040;2023-07-16T14:36:41;1.58;;;1.05;;
20695;SDS011;10507;52.754;13.040;2023-07-16T14:39:09;4.15;;;1.20;;
20695;SDS011;10507;52.754;13.040;2023-07-16T14:41:37;2.35;;;1.15;;
20695;SDS011;10507;52.754;13.040;2023-07-16T14:44:07;2.08;;;1.00;;
20695;SDS011;10507;52.754;13.040;2023-07-16T14:46:35;2.22;;;1.00;;